Astra — PB4187 — position and weather

sailwx.info

Track history (hours):
 
Tides and Currents Weather Stations Pressure Air Temp Water Temp Dewpoint Dewpoint Depression Visibility Wind Speed Wind Dir Waves Ship Positions

Astra

Last reported at 2018-Apr-25 08:14 UTC. Time now 2018-Apr-25 08:29 UTC.
Position N 51°54' E 005°38'.

Length 110 m; draft 2.8 m.

Type: Tanker. MMSI: 244650752.

Date/timePositionNaut miles runAvg speedWind from/ knotsBaromVisibWave heightAir tempDewpointWater temp
2018-Apr-25 08:14N 51°54' E 005°38'711.1
2018-Apr-25 07:35N 51°52' E 005°50'4 9.2
2018-Apr-25 07:10N 51°52' E 005°56'210.2
2018-Apr-25 06:59N 51°51' E 005°58'4 8.4
2018-Apr-25 06:30N 51°52' E 006°05'510.9
2018-Apr-25 06:00N 51°50' E 006°13'11 9.3
2018-Apr-25 04:48N 51°43' E 006°27'310.7
2018-Apr-25 04:31N 51°40' E 006°29'4 8.6
2018-Apr-25 04:00N 51°38' E 006°36'4 7.7
2018-Apr-25 03:30N 51°35' E 006°39'4 9.0
2018-Apr-25 03:00N 51°31' E 006°43'4 7.6
2018-Apr-25 02:31N 51°27' E 006°43'5 9.6
2018-Apr-25 02:01N 51°22' E 006°43'3 6.0
2018-Apr-25 01:30N 51°20' E 006°44'5 9.3
2018-Apr-25 01:00N 51°15' E 006°45'4 7.3
2018-Apr-25 00:30N 51°11' E 006°44'4 8.6
2018-Apr-25 00:01N 51°09' E 006°49'3 6.7
2018-Apr-24 23:31N 51°06' E 006°53'4 8.3
2018-Apr-24 23:00N 51°03' E 006°56'510.3
2018-Apr-24 22:30N 50°58' E 006°60'5 9.2
2018-Apr-24 22:01N 50°54' E 007°01'4 7.2
2018-Apr-24 21:31N 50°50' E 006°59'510.6
2018-Apr-24 21:00N 50°46' E 007°04'611.4
2018-Apr-24 20:31N 50°42' E 007°10'611.8
2018-Apr-24 20:01N 50°36' E 007°13'510.5
2018-Apr-24 19:30N 50°32' E 007°17'70 8.2
2018-Apr-24 10:57N 49°37' E 008°24'510.4
2018-Apr-24 10:30N 49°32' E 008°26'5 9.5
2018-Apr-24 10:00N 49°27' E 008°27'4 8.7
2018-Apr-24 09:30N 49°24' E 008°30'112 5.1
2018-Apr-23 11:31N 47°39' E 007°32'0 0.2
2018-Apr-23 11:29N 47°39' E 007°32'3 7.0
2018-Apr-23 11:00N 47°37' E 007°35'3 6.9
2018-Apr-23 10:30N 47°33' E 007°37'1 1.9
2018-Apr-23 10:00N 47°33' E 007°38'0 0.0
2018-Apr-23 09:30N 47°33' E 007°38'0 0.0
2018-Apr-23 09:00N 47°33' E 007°38'0 0.0
2018-Apr-23 08:30N 47°33' E 007°38'0 0.0
2018-Apr-23 08:00N 47°33' E 007°38'0 0.0
2018-Apr-23 07:30N 47°33' E 007°38'0 0.0
2018-Apr-23 07:00N 47°33' E 007°38'0 0.0
2018-Apr-23 06:29N 47°33' E 007°38'0 0.0
2018-Apr-23 06:00N 47°33' E 007°38'0 0.0
2018-Apr-23 05:30N 47°33' E 007°38'0 0.0
2018-Apr-23 05:00N 47°33' E 007°38'0 0.0
2018-Apr-23 04:30N 47°33' E 007°38'0 0.0
2018-Apr-23 04:00N 47°33' E 007°38'0 0.0
2018-Apr-23 03:30N 47°33' E 007°38'0 0.0
2018-Apr-23 03:00N 47°33' E 007°38'0 0.0
2018-Apr-23 02:30N 47°33' E 007°38'0 0.0
2018-Apr-23 02:00N 47°33' E 007°38'0 0.0
2018-Apr-23 01:30N 47°33' E 007°38'0 0.0
2018-Apr-23 01:00N 47°33' E 007°38'0 0.0
2018-Apr-23 00:30N 47°33' E 007°38'0 0.0
2018-Apr-23 00:00N 47°33' E 007°38'0 0.0
2018-Apr-22 23:30N 47°33' E 007°38'0 0.0
2018-Apr-22 23:00N 47°33' E 007°38'0 0.0
2018-Apr-22 22:30N 47°33' E 007°38'0 0.0
2018-Apr-22 22:00N 47°33' E 007°38'0 0.0
2018-Apr-22 21:30N 47°33' E 007°38'0 0.0
2018-Apr-22 21:00N 47°33' E 007°38'0 0.0
2018-Apr-22 20:30N 47°33' E 007°38'0 0.0
2018-Apr-22 20:00N 47°33' E 007°38'0 0.0
2018-Apr-22 19:30N 47°33' E 007°38'0 0.0
2018-Apr-22 19:00N 47°33' E 007°38'0 0.0
2018-Apr-22 18:30N 47°33' E 007°38'0 0.0
2018-Apr-22 17:59N 47°33' E 007°38'0 0.0
2018-Apr-22 17:30N 47°33' E 007°38'0 0.0
2018-Apr-22 17:00N 47°33' E 007°38'0 0.0
2018-Apr-22 16:30N 47°33' E 007°38'0 0.0
2018-Apr-22 16:00N 47°33' E 007°38'0 0.0
2018-Apr-22 15:30N 47°33' E 007°38'0 0.0
2018-Apr-22 15:00N 47°33' E 007°38'0 0.0
2018-Apr-22 14:30N 47°33' E 007°38'0 0.0
2018-Apr-22 14:00N 47°33' E 007°38'0 0.0
2018-Apr-22 13:30N 47°33' E 007°38'0 0.0
2018-Apr-22 13:00N 47°33' E 007°38'0 0.0
2018-Apr-22 12:30N 47°33' E 007°38'0 0.0
2018-Apr-22 12:00N 47°33' E 007°38'0 0.0
2018-Apr-22 11:30N 47°33' E 007°38'0 0.0
2018-Apr-22 11:00N 47°33' E 007°38'0 0.0
2018-Apr-22 10:30N 47°33' E 007°38'0 0.0
2018-Apr-22 10:00N 47°33' E 007°38'0 0.0
2018-Apr-22 09:30N 47°33' E 007°38'0 0.0
2018-Apr-22 09:00N 47°33' E 007°38'0 0.0
2018-Apr-22 08:30N 47°33' E 007°38'0 0.0
2018-Apr-22 08:00N 47°33' E 007°38'0 0.0
2018-Apr-22 07:30N 47°33' E 007°38'0 0.0
2018-Apr-22 07:00N 47°33' E 007°38'0 0.0
2018-Apr-22 06:30N 47°33' E 007°38'0 0.0
2018-Apr-22 06:00N 47°33' E 007°38'0 0.0
2018-Apr-22 05:30N 47°33' E 007°38'0 0.0
2018-Apr-22 05:00N 47°33' E 007°38'0 0.0
2018-Apr-22 04:30N 47°33' E 007°38'0 0.0
2018-Apr-22 04:00N 47°33' E 007°38'0 0.0
2018-Apr-22 03:30N 47°33' E 007°38'0 0.0
2018-Apr-22 03:00N 47°33' E 007°38'0 0.0
2018-Apr-22 02:30N 47°33' E 007°38'0 0.0
2018-Apr-22 02:00N 47°33' E 007°38'0 0.0
2018-Apr-22 01:30N 47°33' E 007°38'0 0.0
2018-Apr-22 01:00N 47°33' E 007°38'0 0.0
2018-Apr-22 00:30N 47°33' E 007°38'0 0.0
2018-Apr-22 00:00N 47°33' E 007°38'0 0.0
2018-Apr-21 23:30N 47°33' E 007°38'0 0.0
2018-Apr-21 22:59N 47°33' E 007°38'0 0.0
2018-Apr-21 22:30N 47°33' E 007°38'0 0.0
2018-Apr-21 22:00N 47°33' E 007°38'0 0.0
2018-Apr-21 21:30N 47°33' E 007°38'0 0.0
2018-Apr-21 21:00N 47°33' E 007°38'0 0.0
2018-Apr-21 20:30N 47°33' E 007°38'0 0.0
2018-Apr-21 20:00N 47°33' E 007°38'0 0.0
2018-Apr-21 19:30N 47°33' E 007°38'0 0.0
2018-Apr-21 19:00N 47°33' E 007°38'0 0.0
2018-Apr-21 18:30N 47°33' E 007°38'0 0.8
2018-Apr-21 18:00N 47°34' E 007°38'1 3.0
2018-Apr-21 17:30N 47°33' E 007°36'2 4.3
2018-Apr-21 17:00N 47°36' E 007°35'4 7.0
2018-Apr-21 16:24N 47°39' E 007°32'105 3.0
2018-Apr-20 05:44N 49°17' E 008°29'2 3.6
2018-Apr-20 05:18N 49°19' E 008°28'1 3.9
2018-Apr-20 05:00N 49°20' E 008°27'3 4.7
2018-Apr-20 04:21N 49°22' E 008°30'2 4.9
2018-Apr-20 04:00N 49°24' E 008°30'2 4.9
2018-Apr-20 03:30N 49°26' E 008°31'2 4.7
2018-Apr-20 02:59N 49°27' E 008°27'2 4.0
2018-Apr-20 02:30N 49°29' E 008°28'3 5.3
2018-Apr-20 02:00N 49°31' E 008°26'3 5.5
2018-Apr-20 01:30N 49°34' E 008°25'2 4.8
2018-Apr-20 01:00N 49°36' E 008°25'3 5.1
2018-Apr-20 00:27N 49°38' E 008°22'62 3.5
2018-Apr-19 06:39N 50°27' E 007°23'1 4.8
2018-Apr-19 06:30N 50°27' E 007°22'2 4.6
2018-Apr-19 06:00N 50°29' E 007°20'2 5.1
2018-Apr-19 05:30N 50°31' E 007°18'2 4.9
2018-Apr-19 05:00N 50°34' E 007°17'3 5.4
2018-Apr-19 04:30N 50°35' E 007°13'3 5.6
2018-Apr-19 04:00N 50°38' E 007°13'2 4.2
2018-Apr-19 03:30N 50°40' E 007°12'3 5.2
2018-Apr-19 03:00N 50°42' E 007°10'2 5.0
2018-Apr-19 02:30N 50°44' E 007°07'3 5.0
2018-Apr-19 02:00N 50°46' E 007°05'3 5.2
2018-Apr-19 01:30N 50°47' E 007°02'2 4.5
2018-Apr-19 01:00N 50°49' E 007°00'2 3.2
2018-Apr-19 00:30N 50°51' E 006°60'3 5.1
2018-Apr-19 00:00N 50°53' E 007°03'2 3.9
2018-Apr-18 23:30N 50°54' E 007°00'2 4.7
2018-Apr-18 23:00N 50°56' E 006°58'3 5.2
2018-Apr-18 22:30N 50°58' E 006°60'3 5.0
2018-Apr-18 22:00N 51°00' E 006°58'2 4.6
2018-Apr-18 21:30N 51°02' E 006°57'3 5.3
2018-Apr-18 21:01N 51°04' E 006°54'2 3.9
2018-Apr-18 20:30N 51°05' E 006°52'2 3.8
2018-Apr-18 20:00N 51°07' E 006°52'2 4.7
2018-Apr-18 19:30N 51°10' E 006°51'2 4.4
2018-Apr-18 19:00N 51°09' E 006°48'2 4.9
2018-Apr-18 18:30N 51°11' E 006°47'2 4.7
2018-Apr-18 18:00N 51°12' E 006°44'2 4.3
2018-Apr-18 17:30N 51°14' E 006°44'1 2.7
2018-Apr-18 17:00N 51°14' E 006°46'2 4.9
2018-Apr-18 16:30N 51°16' E 006°43'2 4.0
2018-Apr-18 16:00N 51°18' E 006°43'2 4.6
2018-Apr-18 15:30N 51°20' E 006°43'3 5.1
2018-Apr-18 15:00N 51°21' E 006°39'2 3.9
2018-Apr-18 14:30N 51°22' E 006°42'2 5.0
2018-Apr-18 14:00N 51°24' E 006°45'3 5.2
2018-Apr-18 13:30N 51°26' E 006°43'2 3.9
2018-Apr-18 13:00N 51°28' E 006°42'2 3.1
2018-Apr-18 12:30N 51°30' E 006°43'2 3.8
2018-Apr-18 12:00N 51°32' E 006°42'2 4.8
2018-Apr-18 11:30N 51°34' E 006°41'3 4.5
2018-Apr-18 10:53N 51°34' E 006°37'2 5.1
2018-Apr-18 10:26N 51°36' E 006°36'2 5.0
2018-Apr-18 09:57N 51°39' E 006°36'3 5.0
2018-Apr-18 09:19N 51°40' E 006°31'2 5.2
2018-Apr-18 08:56N 51°40' E 006°28'2 5.4
2018-Apr-18 08:30N 51°42' E 006°27'3 4.4
2018-Apr-18 07:52N 51°45' E 006°25'3 5.8
2018-Apr-18 07:21N 51°46' E 006°20'3 6.1
2018-Apr-18 06:56N 51°48' E 006°19'3 6.1
2018-Apr-18 06:30N 51°49' E 006°15'3 5.7
2018-Apr-18 06:00N 51°50' E 006°11'3 5.6
2018-Apr-18 05:30N 51°51' E 006°07'2 4.4
2018-Apr-18 05:00N 51°52' E 006°04'1 1.3
2018-Apr-18 04:30N 51°52' E 006°03'1 1.8
2018-Apr-18 04:00N 51°53' E 006°01'3 5.2
2018-Apr-18 03:28N 51°51' E 005°57'3 4.7
2018-Apr-18 02:49N 51°51' E 005°52'2 5.6
2018-Apr-18 02:29N 51°52' E 005°50'3 6.3
2018-Apr-18 01:59N 51°53' E 005°45'3 6.1
2018-Apr-18 01:30N 51°54' E 005°40'4 6.4
2018-Apr-18 00:57N 51°54' E 005°34'3 6.3
2018-Apr-18 00:30N 51°53' E 005°30'3 6.0
2018-Apr-17 23:59N 51°52' E 005°26'3 6.4
2018-Apr-17 23:30N 51°49' E 005°23'2 4.4
2018-Apr-17 23:00N 51°49' E 005°19'3 6.1
2018-Apr-17 22:30N 51°49' E 005°14'3 6.4
2018-Apr-17 21:58N 51°49' E 005°09'3 6.5
2018-Apr-17 21:28N 51°49' E 005°04'3 7.1
2018-Apr-17 21:00N 51°49' E 004°58'4 7.3
2018-Apr-17 20:30N 51°49' E 004°53'4 7.5
2018-Apr-17 20:00N 51°48' E 004°47'4 8.0
2018-Apr-17 19:30N 51°44' E 004°43'4 8.3
2018-Apr-17 19:00N 51°43' E 004°37'5 8.8
2018-Apr-17 18:23N 51°42' E 004°28'18 3.7
2018-Apr-17 13:24N 51°26' E 004°14'3 7.6
2018-Apr-17 12:59N 51°23' E 004°16'3 7.2
2018-Apr-17 12:30N 51°19' E 004°19'4 7.0
2018-Apr-17 12:00N 51°16' E 004°21'0 0.0
2018-Apr-17 11:24N 51°16' E 004°21'0 0.0
2018-Apr-17 11:00N 51°16' E 004°21'0 0.0
2018-Apr-17 10:27N 51°16' E 004°21'0 0.0
2018-Apr-17 10:00N 51°16' E 004°21'0 0.0
2018-Apr-17 09:30N 51°16' E 004°21'0 0.0
2018-Apr-17 09:00N 51°16' E 004°21'0 0.0
2018-Apr-17 08:30N 51°16' E 004°21'0 0.0
2018-Apr-17 07:48N 51°16' E 004°21'0 0.0
2018-Apr-17 07:30N 51°16' E 004°21'0 0.0
2018-Apr-17 06:57N 51°16' E 004°21'0 0.0
2018-Apr-17 06:27N 51°16' E 004°21'0 0.0
2018-Apr-17 05:48N 51°16' E 004°21'0 0.0
2018-Apr-17 05:21N 51°16' E 004°21'0 0.0
2018-Apr-17 04:57N 51°16' E 004°21'0 0.0
2018-Apr-17 04:30N 51°16' E 004°21'0 0.0
2018-Apr-17 04:00N 51°16' E 004°21'0 0.0
2018-Apr-17 03:30N 51°16' E 004°21'0 0.0
2018-Apr-17 02:51N 51°16' E 004°21'0 0.0
2018-Apr-17 02:30N 51°16' E 004°21'0 0.0
2018-Apr-17 02:00N 51°16' E 004°21'0 0.0
2018-Apr-17 01:27N 51°16' E 004°21'0 0.0
2018-Apr-17 01:00N 51°16' E 004°21'0 0.0
2018-Apr-17 00:24N 51°16' E 004°21'0 0.0
2018-Apr-16 23:57N 51°16' E 004°21'0 0.0
2018-Apr-16 23:27N 51°16' E 004°21'0 0.0
2018-Apr-16 23:00N 51°16' E 004°21'0 0.0
2018-Apr-16 22:27N 51°16' E 004°21'0 0.0
2018-Apr-16 21:57N 51°16' E 004°21'2 4.0
2018-Apr-16 21:30N 51°18' E 004°20'0 0.6
2018-Apr-16 20:54N 51°18' E 004°20'0 0.0
2018-Apr-16 20:24N 51°18' E 004°20'0 0.0
2018-Apr-16 19:48N 51°18' E 004°20'0 0.0
2018-Apr-16 19:18N 51°18' E 004°20'0 0.0
2018-Apr-16 18:54N 51°18' E 004°20'0 0.0
2018-Apr-16 18:18N 51°18' E 004°20'0 0.0
2018-Apr-16 18:00N 51°18' E 004°20'0 0.0
2018-Apr-16 17:30N 51°18' E 004°20'0 0.0
2018-Apr-16 17:00N 51°18' E 004°20'0 0.0
2018-Apr-16 14:54N 51°18' E 004°20'0 0.0
2018-Apr-16 14:24N 51°18' E 004°20'0 0.0
2018-Apr-16 13:48N 51°18' E 004°20'0 0.0
2018-Apr-16 13:30N 51°18' E 004°20'0 0.0
2018-Apr-16 13:00N 51°18' E 004°20'0 0.0
2018-Apr-16 12:30N 51°18' E 004°20'0 0.0
2018-Apr-16 11:54N 51°18' E 004°20'0 0.0
2018-Apr-16 11:18N 51°18' E 004°20'0 0.0
2018-Apr-16 10:42N 51°18' E 004°20'0 0.0
2018-Apr-16 10:24N 51°18' E 004°20'0 0.0
2018-Apr-16 09:18N 51°18' E 004°20'0 0.0
2018-Apr-16 07:06N 51°18' E 004°20'0 0.0
2018-Apr-16 07:00N 51°18' E 004°20'0 0.0
2018-Apr-16 06:30N 51°18' E 004°20'0 0.0
2018-Apr-16 05:06N 51°18' E 004°20'0 0.0
2018-Apr-16 05:00N 51°18' E 004°20'0 0.0
2018-Apr-16 04:18N 51°18' E 004°20'0 0.0
2018-Apr-16 04:00N 51°18' E 004°20'0 0.0
2018-Apr-16 03:30N 51°18' E 004°20'0 0.0
2018-Apr-16 02:36N 51°18' E 004°20'0 0.0
2018-Apr-15 12:34N 51°18' E 004°20'0 5.2
2018-Apr-15 12:30N 51°18' E 004°19'1 0.2
2018-Apr-15 09:03N 51°19' E 004°19'  
Track history (hours):
 
Tides and Currents Weather Stations Pressure Air Temp Water Temp Dewpoint Dewpoint Depression Visibility Wind Speed Wind Dir Waves Ship Positions

Astra

Last reported at 2018-Apr-25 08:14 UTC. Time now 2018-Apr-25 08:29 UTC.
Position N 51°54' E 005°38'.

Length 110 m; draft 2.8 m.

Type: Tanker. MMSI: 244650752.

Date/timePositionNaut miles runAvg speedWind from/ knotsBaromVisibWave heightAir tempDewpointWater temp
2018-Apr-25 08:14N 51°54' E 005°38'711.1
2018-Apr-25 07:35N 51°52' E 005°50'4 9.2
2018-Apr-25 07:10N 51°52' E 005°56'210.2
2018-Apr-25 06:59N 51°51' E 005°58'4 8.4
2018-Apr-25 06:30N 51°52' E 006°05'510.9
2018-Apr-25 06:00N 51°50' E 006°13'11 9.3
2018-Apr-25 04:48N 51°43' E 006°27'310.7
2018-Apr-25 04:31N 51°40' E 006°29'4 8.6
2018-Apr-25 04:00N 51°38' E 006°36'4 7.7
2018-Apr-25 03:30N 51°35' E 006°39'4 9.0
2018-Apr-25 03:00N 51°31' E 006°43'4 7.6
2018-Apr-25 02:31N 51°27' E 006°43'5 9.6
2018-Apr-25 02:01N 51°22' E 006°43'3 6.0
2018-Apr-25 01:30N 51°20' E 006°44'5 9.3
2018-Apr-25 01:00N 51°15' E 006°45'4 7.3
2018-Apr-25 00:30N 51°11' E 006°44'4 8.6
2018-Apr-25 00:01N 51°09' E 006°49'3 6.7
2018-Apr-24 23:31N 51°06' E 006°53'4 8.3
2018-Apr-24 23:00N 51°03' E 006°56'510.3
2018-Apr-24 22:30N 50°58' E 006°60'5 9.2
2018-Apr-24 22:01N 50°54' E 007°01'4 7.2
2018-Apr-24 21:31N 50°50' E 006°59'510.6
2018-Apr-24 21:00N 50°46' E 007°04'611.4
2018-Apr-24 20:31N 50°42' E 007°10'611.8
2018-Apr-24 20:01N 50°36' E 007°13'510.5
2018-Apr-24 19:30N 50°32' E 007°17'70 8.2
2018-Apr-24 10:57N 49°37' E 008°24'510.4
2018-Apr-24 10:30N 49°32' E 008°26'5 9.5
2018-Apr-24 10:00N 49°27' E 008°27'4 8.7
2018-Apr-24 09:30N 49°24' E 008°30'112 5.1
2018-Apr-23 11:31N 47°39' E 007°32'0 0.2
2018-Apr-23 11:29N 47°39' E 007°32'3 7.0
2018-Apr-23 11:00N 47°37' E 007°35'3 6.9
2018-Apr-23 10:30N 47°33' E 007°37'1 1.9
2018-Apr-23 10:00N 47°33' E 007°38'0 0.0
2018-Apr-23 09:30N 47°33' E 007°38'0 0.0
2018-Apr-23 09:00N 47°33' E 007°38'0 0.0
2018-Apr-23 08:30N 47°33' E 007°38'0 0.0
2018-Apr-23 08:00N 47°33' E 007°38'0 0.0
2018-Apr-23 07:30N 47°33' E 007°38'0 0.0
2018-Apr-23 07:00N 47°33' E 007°38'0 0.0
2018-Apr-23 06:29N 47°33' E 007°38'0 0.0
2018-Apr-23 06:00N 47°33' E 007°38'0 0.0
2018-Apr-23 05:30N 47°33' E 007°38'0 0.0
2018-Apr-23 05:00N 47°33' E 007°38'0 0.0
2018-Apr-23 04:30N 47°33' E 007°38'0 0.0
2018-Apr-23 04:00N 47°33' E 007°38'0 0.0
2018-Apr-23 03:30N 47°33' E 007°38'0 0.0
2018-Apr-23 03:00N 47°33' E 007°38'0 0.0
2018-Apr-23 02:30N 47°33' E 007°38'0 0.0
2018-Apr-23 02:00N 47°33' E 007°38'0 0.0
2018-Apr-23 01:30N 47°33' E 007°38'0 0.0
2018-Apr-23 01:00N 47°33' E 007°38'0 0.0
2018-Apr-23 00:30N 47°33' E 007°38'0 0.0
2018-Apr-23 00:00N 47°33' E 007°38'0 0.0
2018-Apr-22 23:30N 47°33' E 007°38'0 0.0
2018-Apr-22 23:00N 47°33' E 007°38'0 0.0
2018-Apr-22 22:30N 47°33' E 007°38'0 0.0
2018-Apr-22 22:00N 47°33' E 007°38'0 0.0
2018-Apr-22 21:30N 47°33' E 007°38'0 0.0
2018-Apr-22 21:00N 47°33' E 007°38'0 0.0
2018-Apr-22 20:30N 47°33' E 007°38'0 0.0
2018-Apr-22 20:00N 47°33' E 007°38'0 0.0
2018-Apr-22 19:30N 47°33' E 007°38'0 0.0
2018-Apr-22 19:00N 47°33' E 007°38'0 0.0
2018-Apr-22 18:30N 47°33' E 007°38'0 0.0
2018-Apr-22 17:59N 47°33' E 007°38'0 0.0
2018-Apr-22 17:30N 47°33' E 007°38'0 0.0
2018-Apr-22 17:00N 47°33' E 007°38'0 0.0
2018-Apr-22 16:30N 47°33' E 007°38'0 0.0
2018-Apr-22 16:00N 47°33' E 007°38'0 0.0
2018-Apr-22 15:30N 47°33' E 007°38'0 0.0
2018-Apr-22 15:00N 47°33' E 007°38'0 0.0
2018-Apr-22 14:30N 47°33' E 007°38'0 0.0
2018-Apr-22 14:00N 47°33' E 007°38'0 0.0
2018-Apr-22 13:30N 47°33' E 007°38'0 0.0
2018-Apr-22 13:00N 47°33' E 007°38'0 0.0
2018-Apr-22 12:30N 47°33' E 007°38'0 0.0
2018-Apr-22 12:00N 47°33' E 007°38'0 0.0
2018-Apr-22 11:30N 47°33' E 007°38'0 0.0
2018-Apr-22 11:00N 47°33' E 007°38'0 0.0
2018-Apr-22 10:30N 47°33' E 007°38'0 0.0
2018-Apr-22 10:00N 47°33' E 007°38'0 0.0
2018-Apr-22 09:30N 47°33' E 007°38'0 0.0
2018-Apr-22 09:00N 47°33' E 007°38'0 0.0
2018-Apr-22 08:30N 47°33' E 007°38'0 0.0
2018-Apr-22 08:00N 47°33' E 007°38'0 0.0
2018-Apr-22 07:30N 47°33' E 007°38'0 0.0
2018-Apr-22 07:00N 47°33' E 007°38'0 0.0
2018-Apr-22 06:30N 47°33' E 007°38'0 0.0
2018-Apr-22 06:00N 47°33' E 007°38'0 0.0
2018-Apr-22 05:30N 47°33' E 007°38'0 0.0
2018-Apr-22 05:00N 47°33' E 007°38'0 0.0
2018-Apr-22 04:30N 47°33' E 007°38'0 0.0
2018-Apr-22 04:00N 47°33' E 007°38'0 0.0
2018-Apr-22 03:30N 47°33' E 007°38'0 0.0
2018-Apr-22 03:00N 47°33' E 007°38'0 0.0
2018-Apr-22 02:30N 47°33' E 007°38'0 0.0
2018-Apr-22 02:00N 47°33' E 007°38'0 0.0
2018-Apr-22 01:30N 47°33' E 007°38'0 0.0
2018-Apr-22 01:00N 47°33' E 007°38'0 0.0
2018-Apr-22 00:30N 47°33' E 007°38'0 0.0
2018-Apr-22 00:00N 47°33' E 007°38'0 0.0
2018-Apr-21 23:30N 47°33' E 007°38'0 0.0
2018-Apr-21 22:59N 47°33' E 007°38'0 0.0
2018-Apr-21 22:30N 47°33' E 007°38'0 0.0
2018-Apr-21 22:00N 47°33' E 007°38'0 0.0
2018-Apr-21 21:30N 47°33' E 007°38'0 0.0
2018-Apr-21 21:00N 47°33' E 007°38'0 0.0
2018-Apr-21 20:30N 47°33' E 007°38'0 0.0
2018-Apr-21 20:00N 47°33' E 007°38'0 0.0
2018-Apr-21 19:30N 47°33' E 007°38'0 0.0
2018-Apr-21 19:00N 47°33' E 007°38'0 0.0
2018-Apr-21 18:30N 47°33' E 007°38'0 0.8
2018-Apr-21 18:00N 47°34' E 007°38'1 3.0
2018-Apr-21 17:30N 47°33' E 007°36'2 4.3
2018-Apr-21 17:00N 47°36' E 007°35'4 7.0
2018-Apr-21 16:24N 47°39' E 007°32'105 3.0
2018-Apr-20 05:44N 49°17' E 008°29'2 3.6
2018-Apr-20 05:18N 49°19' E 008°28'1 3.9
2018-Apr-20 05:00N 49°20' E 008°27'3 4.7
2018-Apr-20 04:21N 49°22' E 008°30'2 4.9
2018-Apr-20 04:00N 49°24' E 008°30'2 4.9
2018-Apr-20 03:30N 49°26' E 008°31'2 4.7
2018-Apr-20 02:59N 49°27' E 008°27'2 4.0
2018-Apr-20 02:30N 49°29' E 008°28'3 5.3
2018-Apr-20 02:00N 49°31' E 008°26'3 5.5
2018-Apr-20 01:30N 49°34' E 008°25'2 4.8
2018-Apr-20 01:00N 49°36' E 008°25'3 5.1
2018-Apr-20 00:27N 49°38' E 008°22'62 3.5
2018-Apr-19 06:39N 50°27' E 007°23'1 4.8
2018-Apr-19 06:30N 50°27' E 007°22'2 4.6
2018-Apr-19 06:00N 50°29' E 007°20'2 5.1
2018-Apr-19 05:30N 50°31' E 007°18'2 4.9
2018-Apr-19 05:00N 50°34' E 007°17'3 5.4
2018-Apr-19 04:30N 50°35' E 007°13'3 5.6
2018-Apr-19 04:00N 50°38' E 007°13'2 4.2
2018-Apr-19 03:30N 50°40' E 007°12'3 5.2
2018-Apr-19 03:00N 50°42' E 007°10'2 5.0
2018-Apr-19 02:30N 50°44' E 007°07'3 5.0
2018-Apr-19 02:00N 50°46' E 007°05'3 5.2
2018-Apr-19 01:30N 50°47' E 007°02'2 4.5
2018-Apr-19 01:00N 50°49' E 007°00'2 3.2
2018-Apr-19 00:30N 50°51' E 006°60'3 5.1
2018-Apr-19 00:00N 50°53' E 007°03'2 3.9
2018-Apr-18 23:30N 50°54' E 007°00'2 4.7
2018-Apr-18 23:00N 50°56' E 006°58'3 5.2
2018-Apr-18 22:30N 50°58' E 006°60'3 5.0
2018-Apr-18 22:00N 51°00' E 006°58'2 4.6
2018-Apr-18 21:30N 51°02' E 006°57'3 5.3
2018-Apr-18 21:01N 51°04' E 006°54'2 3.9
2018-Apr-18 20:30N 51°05' E 006°52'2 3.8
2018-Apr-18 20:00N 51°07' E 006°52'2 4.7
2018-Apr-18 19:30N 51°10' E 006°51'2 4.4
2018-Apr-18 19:00N 51°09' E 006°48'2 4.9
2018-Apr-18 18:30N 51°11' E 006°47'2 4.7
2018-Apr-18 18:00N 51°12' E 006°44'2 4.3
2018-Apr-18 17:30N 51°14' E 006°44'1 2.7
2018-Apr-18 17:00N 51°14' E 006°46'2 4.9
2018-Apr-18 16:30N 51°16' E 006°43'2 4.0
2018-Apr-18 16:00N 51°18' E 006°43'2 4.6
2018-Apr-18 15:30N 51°20' E 006°43'3 5.1
2018-Apr-18 15:00N 51°21' E 006°39'2 3.9
2018-Apr-18 14:30N 51°22' E 006°42'2 5.0
2018-Apr-18 14:00N 51°24' E 006°45'3 5.2
2018-Apr-18 13:30N 51°26' E 006°43'2 3.9
2018-Apr-18 13:00N 51°28' E 006°42'2 3.1
2018-Apr-18 12:30N 51°30' E 006°43'2 3.8
2018-Apr-18 12:00N 51°32' E 006°42'2 4.8
2018-Apr-18 11:30N 51°34' E 006°41'3 4.5
2018-Apr-18 10:53N 51°34' E 006°37'2 5.1
2018-Apr-18 10:26N 51°36' E 006°36'2 5.0
2018-Apr-18 09:57N 51°39' E 006°36'3 5.0
2018-Apr-18 09:19N 51°40' E 006°31'2 5.2
2018-Apr-18 08:56N 51°40' E 006°28'2 5.4
2018-Apr-18 08:30N 51°42' E 006°27'3 4.4
2018-Apr-18 07:52N 51°45' E 006°25'3 5.8
2018-Apr-18 07:21N 51°46' E 006°20'3 6.1
2018-Apr-18 06:56N 51°48' E 006°19'3 6.1
2018-Apr-18 06:30N 51°49' E 006°15'3 5.7
2018-Apr-18 06:00N 51°50' E 006°11'3 5.6
2018-Apr-18 05:30N 51°51' E 006°07'2 4.4
2018-Apr-18 05:00N 51°52' E 006°04'1 1.3
2018-Apr-18 04:30N 51°52' E 006°03'1 1.8
2018-Apr-18 04:00N 51°53' E 006°01'3 5.2
2018-Apr-18 03:28N 51°51' E 005°57'3 4.7
2018-Apr-18 02:49N 51°51' E 005°52'2 5.6
2018-Apr-18 02:29N 51°52' E 005°50'3 6.3
2018-Apr-18 01:59N 51°53' E 005°45'3 6.1
2018-Apr-18 01:30N 51°54' E 005°40'4 6.4
2018-Apr-18 00:57N 51°54' E 005°34'3 6.3
2018-Apr-18 00:30N 51°53' E 005°30'3 6.0
2018-Apr-17 23:59N 51°52' E 005°26'3 6.4
2018-Apr-17 23:30N 51°49' E 005°23'2 4.4
2018-Apr-17 23:00N 51°49' E 005°19'3 6.1
2018-Apr-17 22:30N 51°49' E 005°14'3 6.4
2018-Apr-17 21:58N 51°49' E 005°09'3 6.5
2018-Apr-17 21:28N 51°49' E 005°04'3 7.1
2018-Apr-17 21:00N 51°49' E 004°58'4 7.3
2018-Apr-17 20:30N 51°49' E 004°53'4 7.5
2018-Apr-17 20:00N 51°48' E 004°47'4 8.0
2018-Apr-17 19:30N 51°44' E 004°43'4 8.3
2018-Apr-17 19:00N 51°43' E 004°37'5 8.8
2018-Apr-17 18:23N 51°42' E 004°28'18 3.7
2018-Apr-17 13:24N 51°26' E 004°14'3 7.6
2018-Apr-17 12:59N 51°23' E 004°16'3 7.2
2018-Apr-17 12:30N 51°19' E 004°19'4 7.0
2018-Apr-17 12:00N 51°16' E 004°21'0 0.0
2018-Apr-17 11:24N 51°16' E 004°21'0 0.0
2018-Apr-17 11:00N 51°16' E 004°21'0 0.0
2018-Apr-17 10:27N 51°16' E 004°21'0 0.0
2018-Apr-17 10:00N 51°16' E 004°21'0 0.0
2018-Apr-17 09:30N 51°16' E 004°21'0 0.0
2018-Apr-17 09:00N 51°16' E 004°21'0 0.0
2018-Apr-17 08:30N 51°16' E 004°21'0 0.0
2018-Apr-17 07:48N 51°16' E 004°21'0 0.0
2018-Apr-17 07:30N 51°16' E 004°21'0 0.0
2018-Apr-17 06:57N 51°16' E 004°21'0 0.0
2018-Apr-17 06:27N 51°16' E 004°21'0 0.0
2018-Apr-17 05:48N 51°16' E 004°21'0 0.0
2018-Apr-17 05:21N 51°16' E 004°21'0 0.0
2018-Apr-17 04:57N 51°16' E 004°21'0 0.0
2018-Apr-17 04:30N 51°16' E 004°21'0 0.0
2018-Apr-17 04:00N 51°16' E 004°21'0 0.0
2018-Apr-17 03:30N 51°16' E 004°21'0 0.0
2018-Apr-17 02:51N 51°16' E 004°21'0 0.0
2018-Apr-17 02:30N 51°16' E 004°21'0 0.0
2018-Apr-17 02:00N 51°16' E 004°21'0 0.0
2018-Apr-17 01:27N 51°16' E 004°21'0 0.0
2018-Apr-17 01:00N 51°16' E 004°21'0 0.0
2018-Apr-17 00:24N 51°16' E 004°21'0 0.0
2018-Apr-16 23:57N 51°16' E 004°21'0 0.0
2018-Apr-16 23:27N 51°16' E 004°21'0 0.0
2018-Apr-16 23:00N 51°16' E 004°21'0 0.0
2018-Apr-16 22:27N 51°16' E 004°21'0 0.0
2018-Apr-16 21:57N 51°16' E 004°21'2 4.0
2018-Apr-16 21:30N 51°18' E 004°20'0 0.6
2018-Apr-16 20:54N 51°18' E 004°20'0 0.0
2018-Apr-16 20:24N 51°18' E 004°20'0 0.0
2018-Apr-16 19:48N 51°18' E 004°20'0 0.0
2018-Apr-16 19:18N 51°18' E 004°20'0 0.0
2018-Apr-16 18:54N 51°18' E 004°20'0 0.0
2018-Apr-16 18:18N 51°18' E 004°20'0 0.0
2018-Apr-16 18:00N 51°18' E 004°20'0 0.0
2018-Apr-16 17:30N 51°18' E 004°20'0 0.0
2018-Apr-16 17:00N 51°18' E 004°20'0 0.0
2018-Apr-16 14:54N 51°18' E 004°20'0 0.0
2018-Apr-16 14:24N 51°18' E 004°20'0 0.0
2018-Apr-16 13:48N 51°18' E 004°20'0 0.0
2018-Apr-16 13:30N 51°18' E 004°20'0 0.0
2018-Apr-16 13:00N 51°18' E 004°20'0 0.0
2018-Apr-16 12:30N 51°18' E 004°20'0 0.0
2018-Apr-16 11:54N 51°18' E 004°20'0 0.0
2018-Apr-16 11:18N 51°18' E 004°20'0 0.0
2018-Apr-16 10:42N 51°18' E 004°20'0 0.0
2018-Apr-16 10:24N 51°18' E 004°20'0 0.0
2018-Apr-16 09:18N 51°18' E 004°20'0 0.0
2018-Apr-16 07:06N 51°18' E 004°20'0 0.0
2018-Apr-16 07:00N 51°18' E 004°20'0 0.0
2018-Apr-16 06:30N 51°18' E 004°20'0 0.0
2018-Apr-16 05:06N 51°18' E 004°20'0 0.0
2018-Apr-16 05:00N 51°18' E 004°20'0 0.0
2018-Apr-16 04:18N 51°18' E 004°20'0 0.0
2018-Apr-16 04:00N 51°18' E 004°20'0 0.0
2018-Apr-16 03:30N 51°18' E 004°20'0 0.0
2018-Apr-16 02:36N 51°18' E 004°20'0 0.0
2018-Apr-15 12:34N 51°18' E 004°20'0 5.2
2018-Apr-15 12:30N 51°18' E 004°19'1 0.2
2018-Apr-15 09:03N 51°19' E 004°19'  

Dump ship's entire track history